createdAt,value
2023-02-19T00:00:43.013Z,1005.39
2023-02-19T00:01:43.020Z,1005.42
2023-02-19T00:02:43.015Z,1005.42
2023-02-19T00:03:43.116Z,1005.38
2023-02-19T00:04:43.036Z,1005.44
2023-02-19T00:05:43.026Z,1005.38
2023-02-19T00:06:43.012Z,1005.38
2023-02-19T00:07:43.053Z,1005.35
2023-02-19T00:08:43.008Z,1005.31
2023-02-19T00:09:43.010Z,1005.35
2023-02-19T00:10:43.011Z,1005.4
2023-02-19T00:11:43.018Z,1005.36
2023-02-19T00:12:43.017Z,1005.3
2023-02-19T00:13:43.018Z,1005.33
2023-02-19T00:14:43.009Z,1005.34
2023-02-19T00:15:43.067Z,1005.36
2023-02-19T00:16:43.008Z,1005.36
2023-02-19T00:17:43.016Z,1005.39
2023-02-19T00:18:43.023Z,1005.41
2023-02-19T00:19:43.032Z,1005.36
2023-02-19T00:20:43.014Z,1005.42
2023-02-19T00:21:43.164Z,1005.41
2023-02-19T00:22:43.008Z,1005.41
2023-02-19T00:23:43.015Z,1005.43
2023-02-19T00:24:43.007Z,1005.43
2023-02-19T00:25:43.017Z,1005.46
2023-02-19T00:26:43.016Z,1005.43
2023-02-19T00:27:43.009Z,1005.5
2023-02-19T00:28:43.011Z,1005.52
2023-02-19T00:29:43.015Z,1005.47
2023-02-19T00:30:43.111Z,1005.47
2023-02-19T00:31:43.124Z,1005.5
2023-02-19T00:32:43.021Z,1005.52
2023-02-19T00:33:43.132Z,1005.51
2023-02-19T00:34:43.014Z,1005.54
2023-02-19T00:35:43.015Z,1005.56
2023-02-19T00:36:43.038Z,1005.46
2023-02-19T00:37:43.021Z,1005.42
2023-02-19T00:38:43.012Z,1005.41
2023-02-19T00:39:43.031Z,1005.54
2023-02-19T00:40:43.021Z,1005.53
2023-02-19T00:41:43.014Z,1005.51
2023-02-19T00:42:43.018Z,1005.49
2023-02-19T00:43:43.021Z,1005.47
2023-02-19T00:44:43.068Z,1005.49
2023-02-19T00:45:43.022Z,1005.45
2023-02-19T00:46:43.047Z,1005.41
2023-02-19T00:47:43.111Z,1005.42
2023-02-19T00:48:43.119Z,1005.34
2023-02-19T00:49:43.003Z,1005.39
2023-02-19T00:50:43.010Z,1005.34
2023-02-19T00:51:43.026Z,1005.31
2023-02-19T00:52:43.019Z,1005.31
2023-02-19T00:53:43.015Z,1005.33
2023-02-19T00:54:43.007Z,1005.23
2023-02-19T00:55:43.021Z,1005.28
2023-02-19T00:56:43.274Z,1005.31
2023-02-19T00:57:43.022Z,1005.21
2023-02-19T00:58:43.110Z,1005.21
2023-02-19T00:59:43.126Z,1005.18
2023-02-19T01:00:43.016Z,1005.2
2023-02-19T01:01:43.030Z,1005.25
2023-02-19T01:02:43.031Z,1005.19
2023-02-19T01:03:43.245Z,1005.23
2023-02-19T01:04:43.040Z,1005.19
2023-02-19T01:05:43.011Z,1005.29
2023-02-19T01:06:43.065Z,1005.23
2023-02-19T01:07:43.282Z,1005.3
2023-02-19T01:08:43.228Z,1005.27
2023-02-19T01:09:43.471Z,1005.27
2023-02-19T01:10:42.451Z,1005.38
2023-02-19T01:11:42.731Z,1005.36
2023-02-19T01:12:44.034Z,1005.32
2023-02-19T01:13:43.311Z,1005.35
2023-02-19T01:14:42.607Z,1005.31
2023-02-19T01:15:42.889Z,1005.31
2023-02-19T01:16:43.351Z,1005.34
2023-02-19T01:17:43.428Z,1005.36
2023-02-19T01:18:42.891Z,1005.36
2023-02-19T01:19:43.198Z,1005.35
2023-02-19T01:20:43.471Z,1005.33
2023-02-19T01:21:43.135Z,1005.35
2023-02-19T01:22:43.406Z,1005.33
2023-02-19T01:23:43.278Z,1005.37
2023-02-19T01:24:43.477Z,1005.37
2023-02-19T01:25:43.179Z,1005.33
2023-02-19T01:26:43.312Z,1005.32
2023-02-19T01:27:43.589Z,1005.35
2023-02-19T01:28:43.317Z,1005.38
2023-02-19T01:29:43.569Z,1005.24
2023-02-19T01:30:43.183Z,1005.31
2023-02-19T01:31:43.076Z,1005.28
2023-02-19T01:32:43.116Z,1005.27
2023-02-19T01:33:43.011Z,1005.32
2023-02-19T01:34:43.281Z,1005.28
2023-02-19T01:35:43.028Z,1005.22
2023-02-19T01:36:43.212Z,1005.24
2023-02-19T01:37:43.082Z,1005.25
2023-02-19T01:38:43.245Z,1005.27
2023-02-19T01:39:43.061Z,1005.23
2023-02-19T01:40:43.020Z,1005.22
2023-02-19T01:41:43.019Z,1005.19
2023-02-19T01:42:43.039Z,1005.24
2023-02-19T01:43:43.003Z,1005.27
2023-02-19T01:44:43.006Z,1005.22
2023-02-19T01:45:43.024Z,1005.24
2023-02-19T01:46:43.062Z,1005.24
2023-02-19T01:47:43.032Z,1005.25
2023-02-19T01:48:43.014Z,1005.2
2023-02-19T01:49:43.011Z,1005.23
2023-02-19T01:50:43.012Z,1005.22
2023-02-19T01:51:43.014Z,1005.24
2023-02-19T01:52:43.045Z,1005.22
2023-02-19T01:53:43.012Z,1005.22
2023-02-19T01:54:43.009Z,1005.15
2023-02-19T01:55:43.016Z,1005.12
2023-02-19T01:56:43.236Z,1005.16
2023-02-19T01:57:43.032Z,1005.18
2023-02-19T01:58:43.011Z,1005.15
2023-02-19T01:59:43.064Z,1005.13
2023-02-19T02:00:43.005Z,1005.18
2023-02-19T02:01:43.048Z,1005.17
2023-02-19T02:02:43.033Z,1005.1
2023-02-19T02:03:43.174Z,1005.13
2023-02-19T02:04:43.015Z,1005.13
2023-02-19T02:05:43.011Z,1004.99
2023-02-19T02:06:43.008Z,1005.03
2023-02-19T02:07:43.281Z,1005.03
2023-02-19T02:08:43.022Z,1005.05
2023-02-19T02:09:43.032Z,1005.06
2023-02-19T02:10:43.009Z,1005.05
2023-02-19T02:11:43.094Z,1005
2023-02-19T02:12:43.018Z,1004.99
2023-02-19T02:13:43.007Z,1005.02
2023-02-19T02:14:43.016Z,1004.99
2023-02-19T02:15:43.010Z,1005.03
2023-02-19T02:16:43.031Z,1004.97
2023-02-19T02:17:43.029Z,1004.97
2023-02-19T02:18:43.018Z,1004.97
2023-02-19T02:19:43.014Z,1004.94
2023-02-19T02:20:43.012Z,1004.9
2023-02-19T02:21:43.016Z,1004.95
2023-02-19T02:22:43.040Z,1004.95
2023-02-19T02:23:43.023Z,1004.84
2023-02-19T02:24:43.030Z,1004.89
2023-02-19T02:25:43.077Z,1004.89
2023-02-19T02:26:43.015Z,1004.93
2023-02-19T02:27:43.031Z,1004.93
2023-02-19T02:28:43.016Z,1005.02
2023-02-19T02:29:43.024Z,1005.12
2023-02-19T02:30:43.024Z,1005.12
2023-02-19T02:31:43.077Z,1005.15
2023-02-19T02:32:43.049Z,1005.06
2023-02-19T02:33:43.010Z,1005.03
2023-02-19T02:34:43.018Z,1005.04
2023-02-19T02:35:43.016Z,1005.05
2023-02-19T02:36:43.016Z,1005.07
2023-02-19T02:37:43.040Z,1005.05
2023-02-19T02:38:43.038Z,1005.08
2023-02-19T02:39:43.037Z,1005.13
2023-02-19T02:40:43.022Z,1005.04
2023-02-19T02:41:43.018Z,1005.04
2023-02-19T02:42:43.030Z,1005.03
2023-02-19T02:43:43.015Z,1005.07
2023-02-19T02:44:43.013Z,1005.02
2023-02-19T02:45:43.282Z,1005.03
2023-02-19T02:46:43.015Z,1005.11
2023-02-19T02:47:43.046Z,1005.11
2023-02-19T02:48:43.023Z,1005.08
2023-02-19T02:49:43.018Z,1005.12
2023-02-19T02:50:43.019Z,1005.07
2023-02-19T02:51:43.097Z,1005.13
2023-02-19T02:52:43.023Z,1005.1
2023-02-19T02:53:43.011Z,1005.12
2023-02-19T02:54:43.128Z,1005.13
2023-02-19T02:55:43.017Z,1005.1
2023-02-19T02:56:43.006Z,1005.15
2023-02-19T02:57:43.011Z,1005.17
2023-02-19T02:58:43.025Z,1005.14
2023-02-19T02:59:43.007Z,1005.19
2023-02-19T03:00:43.025Z,1005.22
2023-02-19T03:01:43.017Z,1005.14
2023-02-19T03:02:43.011Z,1005.18
2023-02-19T03:03:43.014Z,1005.12
2023-02-19T03:04:43.017Z,1005.18
2023-02-19T03:05:43.058Z,1005.21
2023-02-19T03:06:43.068Z,1005.23
2023-02-19T03:07:43.025Z,1005.25
2023-02-19T03:08:43.006Z,1005.22
2023-02-19T03:09:43.016Z,1005.22
2023-02-19T03:10:43.038Z,1005.23
2023-02-19T03:11:43.021Z,1005.24
2023-02-19T03:12:43.272Z,1005.22
2023-02-19T03:13:43.007Z,1005.24
2023-02-19T03:14:43.013Z,1005.26
2023-02-19T03:15:43.109Z,1005.31
2023-02-19T03:16:44.379Z,1005.28
2023-02-19T03:17:43.188Z,1005.25
2023-02-19T03:18:43.509Z,1005.29
2023-02-19T03:19:43.223Z,1005.27
2023-02-19T03:20:43.032Z,1005.34
2023-02-19T03:21:43.681Z,1005.27
2023-02-19T03:22:43.791Z,1005.27
2023-02-19T03:23:43.794Z,1005.29
2023-02-19T03:24:43.022Z,1005.25
2023-02-19T03:25:43.050Z,1005.3
2023-02-19T03:26:43.028Z,1005.31
2023-02-19T03:27:43.279Z,1005.3
2023-02-19T03:28:43.013Z,1005.31
2023-02-19T03:29:43.011Z,1005.3
2023-02-19T03:30:43.028Z,1005.24
2023-02-19T03:31:43.132Z,1005.25
2023-02-19T03:32:43.015Z,1005.24
2023-02-19T03:33:43.020Z,1005.27
2023-02-19T03:34:43.030Z,1005.36
2023-02-19T03:35:43.134Z,1005.36
2023-02-19T03:36:43.024Z,1005.33
2023-02-19T03:37:43.027Z,1005.37
2023-02-19T03:38:43.014Z,1005.39
2023-02-19T03:39:43.012Z,1005.39
2023-02-19T03:40:43.031Z,1005.37
2023-02-19T03:41:43.020Z,1005.4
2023-02-19T03:42:43.044Z,1005.46
2023-02-19T03:43:43.017Z,1005.44
2023-02-19T03:44:43.012Z,1005.43
2023-02-19T03:45:43.051Z,1005.45
2023-02-19T03:46:43.009Z,1005.52
2023-02-19T03:47:43.008Z,1005.5
2023-02-19T03:48:43.019Z,1005.47
2023-02-19T03:49:43.028Z,1005.47
2023-02-19T03:50:43.049Z,1005.44
2023-02-19T03:51:43.015Z,1005.5
2023-02-19T03:52:43.010Z,1005.51
2023-02-19T03:53:43.009Z,1005.51
2023-02-19T03:54:43.012Z,1005.47
2023-02-19T03:55:43.039Z,1005.53
2023-02-19T03:56:43.028Z,1005.54
2023-02-19T03:57:43.020Z,1005.56
2023-02-19T03:58:43.010Z,1005.53
2023-02-19T03:59:43.031Z,1005.59
2023-02-19T04:00:43.036Z,1005.57
2023-02-19T04:01:43.033Z,1005.63
2023-02-19T04:02:43.034Z,1005.63
2023-02-19T04:03:43.132Z,1005.61
2023-02-19T04:04:43.042Z,1005.67
2023-02-19T04:05:43.018Z,1005.69
2023-02-19T04:06:43.008Z,1005.7
2023-02-19T04:07:43.018Z,1005.68
2023-02-19T04:08:43.015Z,1005.62
2023-02-19T04:09:43.046Z,1005.67
2023-02-19T04:10:43.022Z,1005.67
2023-02-19T04:11:43.019Z,1005.69
2023-02-19T04:12:43.028Z,1005.71
2023-02-19T04:13:43.023Z,1005.74
2023-02-19T04:14:43.026Z,1005.78
2023-02-19T04:15:43.016Z,1005.91
2023-02-19T04:16:43.097Z,1005.92
2023-02-19T04:17:43.018Z,1005.97
2023-02-19T04:18:43.021Z,1005.89
2023-02-19T04:19:43.012Z,1005.92
2023-02-19T04:20:43.021Z,1005.95
2023-02-19T04:21:43.021Z,1005.93
2023-02-19T04:22:43.015Z,1005.95
2023-02-19T04:23:43.026Z,1005.92
2023-02-19T04:24:43.018Z,1005.96
2023-02-19T04:25:43.016Z,1005.92
2023-02-19T04:26:43.019Z,1005.95
2023-02-19T04:27:43.078Z,1006.08
2023-02-19T04:28:43.050Z,1006.1
2023-02-19T04:29:43.115Z,1006.08
2023-02-19T04:30:43.201Z,1006.09
2023-02-19T04:31:43.242Z,1006.11
2023-02-19T04:32:43.017Z,1006.04
2023-02-19T04:33:43.019Z,1006.01
2023-02-19T04:34:43.025Z,1006.1
2023-02-19T04:35:43.273Z,1006.12
2023-02-19T04:36:43.015Z,1006.11
2023-02-19T04:37:43.025Z,1006.13
2023-02-19T04:38:43.116Z,1006.09
2023-02-19T04:39:43.024Z,1006.11
2023-02-19T04:40:43.123Z,1006.15
2023-02-19T04:41:43.533Z,1006.23
2023-02-19T04:42:43.589Z,1006.25
2023-02-19T04:43:42.553Z,1006.26
2023-02-19T04:44:42.828Z,1006.27
2023-02-19T04:45:43.106Z,1006.31
2023-02-19T04:46:44.494Z,1006.29
2023-02-19T04:47:42.673Z,1006.29
2023-02-19T04:48:42.941Z,1006.32
2023-02-19T04:49:43.219Z,1006.31
2023-02-19T04:50:42.729Z,1006.35
2023-02-19T04:51:42.968Z,1006.4
2023-02-19T04:52:43.221Z,1006.42
2023-02-19T04:53:43.504Z,1006.42
2023-02-19T04:54:43.156Z,1006.45
2023-02-19T04:55:43.284Z,1006.45
2023-02-19T04:56:43.506Z,1006.5
2023-02-19T04:57:43.872Z,1006.46
2023-02-19T04:58:43.380Z,1006.52
2023-02-19T04:59:43.156Z,1006.52
2023-02-19T05:00:43.091Z,1006.56
2023-02-19T05:01:43.262Z,1006.53
2023-02-19T05:02:43.424Z,1006.54
2023-02-19T05:03:43.264Z,1006.58
2023-02-19T05:04:43.205Z,1006.53
2023-02-19T05:05:43.012Z,1006.57
2023-02-19T05:06:43.244Z,1006.56
2023-02-19T05:07:43.021Z,1006.59
2023-02-19T05:08:43.282Z,1006.61
2023-02-19T05:09:43.071Z,1006.64
2023-02-19T05:10:43.289Z,1006.67
2023-02-19T05:11:43.130Z,1006.72
2023-02-19T05:12:43.344Z,1006.71
2023-02-19T05:13:43.234Z,1006.7
2023-02-19T05:14:43.035Z,1006.7
2023-02-19T05:15:43.085Z,1006.66
2023-02-19T05:16:43.027Z,1006.7
2023-02-19T05:17:43.040Z,1006.72
2023-02-19T05:18:43.250Z,1006.7
2023-02-19T05:19:43.014Z,1006.65
2023-02-19T05:20:43.029Z,1006.69
2023-02-19T05:21:43.010Z,1006.66
2023-02-19T05:22:43.026Z,1006.67
2023-02-19T05:23:43.055Z,1006.64
2023-02-19T05:24:43.016Z,1006.74
2023-02-19T05:25:43.265Z,1006.71
2023-02-19T05:26:46.108Z,1006.76
2023-02-19T05:27:43.021Z,1006.76
2023-02-19T05:28:43.088Z,1006.79
2023-02-19T05:29:43.009Z,1006.79
2023-02-19T05:30:43.007Z,1006.81
2023-02-19T05:31:43.320Z,1006.84
2023-02-19T05:32:43.028Z,1006.83
2023-02-19T05:33:43.125Z,1006.87
2023-02-19T05:34:43.008Z,1006.87
2023-02-19T05:35:43.231Z,1006.84
2023-02-19T05:36:43.010Z,1006.93
2023-02-19T05:37:43.048Z,1006.8
2023-02-19T05:38:43.067Z,1006.93
2023-02-19T05:39:43.017Z,1006.92
2023-02-19T05:40:43.106Z,1006.94
2023-02-19T05:41:43.007Z,1006.97
2023-02-19T05:42:43.273Z,1007
2023-02-19T05:43:43.009Z,1007.01
2023-02-19T05:44:43.006Z,1006.95
2023-02-19T05:45:43.026Z,1007.04
2023-02-19T05:46:43.049Z,1007.06
2023-02-19T05:47:43.027Z,1007.04
2023-02-19T05:48:43.013Z,1007.1
2023-02-19T05:49:43.004Z,1007.1
2023-02-19T05:50:43.004Z,1007.11
2023-02-19T05:51:43.005Z,1007.13
2023-02-19T05:52:43.091Z,1007.12
2023-02-19T05:53:43.020Z,1007.12
2023-02-19T05:54:43.011Z,1007.18
2023-02-19T05:55:43.015Z,1007.16
2023-02-19T05:56:43.021Z,1007.23
2023-02-19T05:57:46.460Z,1007.18
2023-02-19T05:58:43.002Z,1007.23
2023-02-19T05:59:43.004Z,1007.22
2023-02-19T06:00:43.012Z,1007.23
2023-02-19T06:01:43.012Z,1007.21
2023-02-19T06:02:43.050Z,1007.25
2023-02-19T06:03:43.050Z,1007.27
2023-02-19T06:04:43.013Z,1007.27
2023-02-19T06:05:43.009Z,1007.3
2023-02-19T06:06:43.036Z,1007.28
2023-02-19T06:07:43.030Z,1007.29
2023-02-19T06:08:43.004Z,1007.28
2023-02-19T06:09:43.006Z,1007.3
2023-02-19T06:10:43.114Z,1007.28
2023-02-19T06:11:43.010Z,1007.34
2023-02-19T06:12:43.030Z,1007.32
2023-02-19T06:13:43.023Z,1007.31
2023-02-19T06:14:43.008Z,1007.38
2023-02-19T06:15:43.008Z,1007.35
2023-02-19T06:16:43.020Z,1007.4
2023-02-19T06:17:43.030Z,1007.39
2023-02-19T06:18:43.005Z,1007.42
2023-02-19T06:19:43.007Z,1007.39
2023-02-19T06:20:43.011Z,1007.46
2023-02-19T06:21:43.040Z,1007.49
2023-02-19T06:22:43.034Z,1007.43
2023-02-19T06:23:43.018Z,1007.41
2023-02-19T06:24:43.156Z,1007.45
2023-02-19T06:25:43.006Z,1007.47
2023-02-19T06:26:43.019Z,1007.49
2023-02-19T06:27:43.030Z,1007.48
2023-02-19T06:28:43.007Z,1007.51
2023-02-19T06:29:43.013Z,1007.5
2023-02-19T06:30:43.010Z,1007.54
2023-02-19T06:31:43.163Z,1007.54
2023-02-19T06:32:43.023Z,1007.57
2023-02-19T06:33:43.018Z,1007.57
2023-02-19T06:34:43.022Z,1007.59
2023-02-19T06:35:43.016Z,1007.61
2023-02-19T06:36:43.010Z,1007.63
2023-02-19T06:37:43.047Z,1007.64
2023-02-19T06:38:43.021Z,1007.72
2023-02-19T06:39:43.014Z,1007.69
2023-02-19T06:40:43.009Z,1007.68
2023-02-19T06:41:43.021Z,1007.71
2023-02-19T06:42:43.024Z,1007.74
2023-02-19T06:43:43.014Z,1007.72
2023-02-19T06:44:43.018Z,1007.81
2023-02-19T06:45:43.216Z,1007.7
2023-02-19T06:46:43.588Z,1007.7
2023-02-19T06:47:43.249Z,1007.67
2023-02-19T06:48:43.089Z,1007.69
2023-02-19T06:49:43.012Z,1007.68
2023-02-19T06:50:43.637Z,1007.72
2023-02-19T06:51:43.023Z,1007.71
2023-02-19T06:52:43.157Z,1007.79
2023-02-19T06:53:43.482Z,1007.87
2023-02-19T06:54:43.738Z,1007.85
2023-02-19T06:55:43.012Z,1007.84
2023-02-19T06:56:44.896Z,1007.85
2023-02-19T06:57:43.580Z,1007.87
2023-02-19T06:58:43.284Z,1007.87
2023-02-19T06:59:43.092Z,1007.85
2023-02-19T07:00:43.041Z,1007.89
2023-02-19T07:01:43.187Z,1007.89
2023-02-19T07:02:43.014Z,1007.9
2023-02-19T07:03:43.157Z,1007.93
2023-02-19T07:04:43.021Z,1007.93
2023-02-19T07:05:43.014Z,1007.95
2023-02-19T07:06:43.234Z,1007.94
2023-02-19T07:07:43.008Z,1007.97
2023-02-19T07:08:43.015Z,1007.98
2023-02-19T07:09:43.019Z,1008.03
2023-02-19T07:10:43.013Z,1008.03
2023-02-19T07:11:43.022Z,1007.99
2023-02-19T07:12:43.021Z,1008.07
2023-02-19T07:13:43.014Z,1008.05
2023-02-19T07:14:43.016Z,1008.09
2023-02-19T07:15:43.010Z,1008.11
2023-02-19T07:16:43.090Z,1008.12
2023-02-19T07:17:43.018Z,1008.16
2023-02-19T07:18:43.023Z,1008.17
2023-02-19T07:19:43.022Z,1008.22
2023-02-19T07:20:43.014Z,1008.17
2023-02-19T07:21:43.025Z,1008.22
2023-02-19T07:22:43.018Z,1008.19
2023-02-19T07:23:43.016Z,1008.23
2023-02-19T07:24:43.013Z,1008.23
2023-02-19T07:25:43.008Z,1008.27
2023-02-19T07:26:43.016Z,1008.33
2023-02-19T07:27:43.015Z,1008.35
2023-02-19T07:28:43.012Z,1008.41
2023-02-19T07:29:43.009Z,1008.42
2023-02-19T07:30:43.024Z,1008.47
2023-02-19T07:31:43.036Z,1008.45
2023-02-19T07:32:43.042Z,1008.51
2023-02-19T07:33:43.010Z,1008.58
2023-02-19T07:34:43.029Z,1008.56
2023-02-19T07:35:43.093Z,1008.6
2023-02-19T07:36:43.004Z,1008.6
2023-02-19T07:37:43.010Z,1008.59
2023-02-19T07:38:43.016Z,1008.59
2023-02-19T07:39:43.011Z,1008.62
2023-02-19T07:40:43.013Z,1008.69
2023-02-19T07:41:43.015Z,1008.7
2023-02-19T07:42:43.039Z,1008.77
2023-02-19T07:43:43.018Z,1008.7
2023-02-19T07:44:43.111Z,1008.72
2023-02-19T07:45:43.035Z,1008.74
2023-02-19T07:46:43.027Z,1008.79
2023-02-19T07:47:43.022Z,1008.85
2023-02-19T07:48:43.187Z,1008.88
2023-02-19T07:49:43.012Z,1008.92
2023-02-19T07:50:43.017Z,1008.92
2023-02-19T07:51:43.038Z,1008.89
2023-02-19T07:52:43.015Z,1008.93
2023-02-19T07:53:43.018Z,1008.95
2023-02-19T07:54:43.017Z,1008.94
2023-02-19T07:55:43.015Z,1008.94
2023-02-19T07:56:43.025Z,1008.98
2023-02-19T07:57:43.018Z,1008.95
2023-02-19T07:58:43.110Z,1008.98
2023-02-19T07:59:43.010Z,1008.97
2023-02-19T08:00:43.016Z,1008.97
2023-02-19T08:01:43.019Z,1009.01
2023-02-19T08:02:43.065Z,1008.98
2023-02-19T08:03:43.112Z,1008.99
2023-02-19T08:04:43.029Z,1009.01
2023-02-19T08:05:43.053Z,1008.99
2023-02-19T08:06:43.192Z,1009.02
2023-02-19T08:07:43.015Z,1009.04
2023-02-19T08:08:43.032Z,1009
2023-02-19T08:09:43.018Z,1008.99
2023-02-19T08:10:43.261Z,1008.99
2023-02-19T08:11:43.048Z,1008.94
2023-02-19T08:12:43.014Z,1009
2023-02-19T08:13:43.105Z,1009.06
2023-02-19T08:14:43.379Z,1009.03
2023-02-19T08:15:43.601Z,1009.04
2023-02-19T08:16:45.632Z,1009.1
2023-02-19T08:17:42.888Z,1009.14
2023-02-19T08:18:43.171Z,1009.12
2023-02-19T08:19:42.436Z,1009.13
2023-02-19T08:20:42.720Z,1009.19
2023-02-19T08:21:42.986Z,1009.2
2023-02-19T08:22:43.280Z,1009.19
2023-02-19T08:23:42.757Z,1009.25
2023-02-19T08:24:43.025Z,1009.23
2023-02-19T08:25:43.347Z,1009.25
2023-02-19T08:26:43.500Z,1009.28
2023-02-19T08:27:43.154Z,1009.29
2023-02-19T08:28:43.373Z,1009.29
2023-02-19T08:29:43.270Z,1009.28
2023-02-19T08:30:43.154Z,1009.3
2023-02-19T08:31:43.324Z,1009.33
2023-02-19T08:32:43.024Z,1009.32
2023-02-19T08:33:43.245Z,1009.34
2023-02-19T08:34:43.064Z,1009.32
2023-02-19T08:35:43.301Z,1009.35
2023-02-19T08:36:43.080Z,1009.37
2023-02-19T08:37:43.353Z,1009.34
2023-02-19T08:38:43.164Z,1009.37
2023-02-19T08:39:43.415Z,1009.35
2023-02-19T08:40:43.691Z,1009.36
2023-02-19T08:41:43.295Z,1009.33
2023-02-19T08:42:43.180Z,1009.26
2023-02-19T08:43:43.367Z,1009.27
2023-02-19T08:44:43.125Z,1009.29
2023-02-19T08:45:43.034Z,1009.32
2023-02-19T08:46:43.168Z,1009.34
2023-02-19T08:47:43.047Z,1009.35
2023-02-19T08:48:43.231Z,1009.38
2023-02-19T08:49:43.056Z,1009.37
2023-02-19T08:50:43.019Z,1009.41
2023-02-19T08:51:43.014Z,1009.47
2023-02-19T08:52:43.036Z,1009.4
2023-02-19T08:53:43.118Z,1009.43
2023-02-19T08:54:43.008Z,1009.45
2023-02-19T08:55:43.012Z,1009.45
2023-02-19T08:56:43.030Z,1009.5
2023-02-19T08:57:43.176Z,1009.46
2023-02-19T08:58:43.331Z,1009.51
2023-02-19T08:59:43.275Z,1009.46
2023-02-19T09:00:43.007Z,1009.44
2023-02-19T09:01:43.216Z,1009.47
2023-02-19T09:02:43.009Z,1009.51
2023-02-19T09:03:43.077Z,1009.54
2023-02-19T09:04:43.032Z,1009.54
2023-02-19T09:05:43.010Z,1009.5
2023-02-19T09:06:43.430Z,1009.47
2023-02-19T09:07:43.035Z,1009.51
2023-02-19T09:08:43.069Z,1009.47
2023-02-19T09:09:43.100Z,1009.53
2023-02-19T09:10:43.437Z,1009.51
2023-02-19T09:11:43.021Z,1009.52
2023-02-19T09:12:43.052Z,1009.54
2023-02-19T09:13:43.227Z,1009.6
2023-02-19T09:14:43.316Z,1009.59
2023-02-19T09:15:43.055Z,1009.61
2023-02-19T09:16:43.011Z,1009.66
2023-02-19T09:17:43.093Z,1009.66
2023-02-19T09:18:43.354Z,1009.66
2023-02-19T09:19:43.013Z,1009.67
2023-02-19T09:20:43.221Z,1009.62
2023-02-19T09:21:43.013Z,1009.7
2023-02-19T09:22:43.096Z,1009.71
2023-02-19T09:23:43.015Z,1009.71
2023-02-19T09:24:43.033Z,1009.68
2023-02-19T09:25:43.023Z,1009.69
2023-02-19T09:26:43.029Z,1009.75
2023-02-19T09:27:43.041Z,1009.73
2023-02-19T09:28:43.017Z,1009.75
2023-02-19T09:29:43.044Z,1009.79
2023-02-19T09:30:43.046Z,1009.79
2023-02-19T09:31:43.098Z,1009.86
2023-02-19T09:32:43.227Z,1009.86
2023-02-19T09:33:43.013Z,1009.89
2023-02-19T09:34:43.020Z,1009.93
2023-02-19T09:35:43.043Z,1009.93
2023-02-19T09:36:43.066Z,1009.92
2023-02-19T09:37:43.042Z,1009.98
2023-02-19T09:38:43.021Z,1009.96
2023-02-19T09:39:43.170Z,1010.01
2023-02-19T09:40:43.020Z,1010.03
2023-02-19T09:41:43.015Z,1010.03
2023-02-19T09:42:43.042Z,1010.05
2023-02-19T09:43:43.014Z,1010.11
2023-02-19T09:44:43.017Z,1010.08
2023-02-19T09:45:43.020Z,1010.12
2023-02-19T09:46:43.036Z,1010.13
2023-02-19T09:47:43.037Z,1010.14
2023-02-19T09:48:43.020Z,1010.22
2023-02-19T09:49:43.014Z,1010.2
2023-02-19T09:50:43.017Z,1010.22
2023-02-19T09:51:43.019Z,1010.4
2023-02-19T09:52:43.046Z,1010.29
2023-02-19T09:53:43.018Z,1010.36
2023-02-19T09:54:43.012Z,1010.43
2023-02-19T09:55:43.043Z,1010.41
2023-02-19T09:56:43.014Z,1010.47
2023-02-19T09:57:43.021Z,1010.59
2023-02-19T09:58:43.004Z,1010.6
2023-02-19T09:59:43.012Z,1010.67
2023-02-19T10:00:43.018Z,1010.76
2023-02-19T10:01:43.065Z,1010.88
2023-02-19T10:02:43.033Z,1010.96
2023-02-19T10:03:43.049Z,1011.02
2023-02-19T10:04:43.062Z,1011.04
2023-02-19T10:05:43.110Z,1011.07
2023-02-19T10:06:43.025Z,1011.01
2023-02-19T10:07:43.025Z,1011.09
2023-02-19T10:08:43.008Z,1011.11
2023-02-19T10:09:43.011Z,1011.14
2023-02-19T10:10:43.023Z,1011.18
2023-02-19T10:11:43.007Z,1011.16
2023-02-19T10:12:43.027Z,1011.19
2023-02-19T10:13:43.004Z,1011.13
2023-02-19T10:14:43.010Z,1011.1
2023-02-19T10:15:43.013Z,1011.23
2023-02-19T10:16:43.008Z,1011.28
2023-02-19T10:17:43.092Z,1011.31
2023-02-19T10:18:43.053Z,1011.23
2023-02-19T10:19:43.014Z,1011.22
2023-02-19T10:20:43.270Z,1011.22
2023-02-19T10:21:43.727Z,1011.27
2023-02-19T10:22:43.232Z,1011.29
2023-02-19T10:23:43.008Z,1011.34
2023-02-19T10:24:43.279Z,1011.37
2023-02-19T10:25:43.593Z,1011.46
2023-02-19T10:26:43.124Z,1011.51
2023-02-19T10:27:43.115Z,1011.52
2023-02-19T10:28:43.478Z,1011.59
2023-02-19T10:29:43.147Z,1011.56
2023-02-19T10:30:43.009Z,1011.59
2023-02-19T10:31:43.320Z,1011.64
2023-02-19T10:32:43.545Z,1011.61
2023-02-19T10:33:43.797Z,1011.69
2023-02-19T10:34:43.074Z,1011.73
2023-02-19T10:35:43.171Z,1011.81
2023-02-19T10:36:43.010Z,1011.78
2023-02-19T10:37:43.044Z,1011.8
2023-02-19T10:38:43.006Z,1011.84
2023-02-19T10:39:43.016Z,1011.85
2023-02-19T10:40:43.012Z,1011.82
2023-02-19T10:41:46.110Z,1011.88
2023-02-19T10:42:43.038Z,1011.92
2023-02-19T10:43:43.009Z,1011.85
2023-02-19T10:44:43.016Z,1011.85
2023-02-19T10:45:43.195Z,1011.86
2023-02-19T10:46:43.181Z,1011.9
2023-02-19T10:47:43.047Z,1011.91
2023-02-19T10:48:43.008Z,1011.93
2023-02-19T10:49:42.999Z,1011.94
2023-02-19T10:50:43.022Z,1011.93
2023-02-19T10:51:43.018Z,1011.89
2023-02-19T10:52:43.028Z,1011.84
2023-02-19T10:53:43.008Z,1011.84
2023-02-19T10:54:43.018Z,1011.89
2023-02-19T10:55:43.028Z,1011.92
2023-02-19T10:56:43.009Z,1011.89
2023-02-19T10:57:43.014Z,1011.9
2023-02-19T10:58:43.127Z,1011.9
2023-02-19T10:59:43.120Z,1011.95
2023-02-19T11:00:43.009Z,1012.04
2023-02-19T11:01:43.029Z,1012.13
2023-02-19T11:02:43.006Z,1012.13
2023-02-19T11:03:43.018Z,1012.17
2023-02-19T11:04:43.165Z,1012.17
2023-02-19T11:05:43.010Z,1012.14
2023-02-19T11:06:43.019Z,1012.11
2023-02-19T11:07:43.008Z,1012.1
2023-02-19T11:08:43.014Z,1012.11
2023-02-19T11:09:43.021Z,1012.13
2023-02-19T11:10:43.008Z,1012.19
2023-02-19T11:11:43.110Z,1012.18
2023-02-19T11:12:43.032Z,1012.2
2023-02-19T11:13:43.001Z,1012.19
2023-02-19T11:14:43.003Z,1012.2
2023-02-19T11:15:43.035Z,1012.21
2023-02-19T11:16:43.112Z,1012.22
2023-02-19T11:17:43.020Z,1012.16
2023-02-19T11:18:43.003Z,1012.21
2023-02-19T11:19:43.024Z,1012.23
2023-02-19T11:20:43.014Z,1012.26
2023-02-19T11:21:43.010Z,1012.28
2023-02-19T11:22:43.010Z,1012.26
2023-02-19T11:23:43.039Z,1012.26
2023-02-19T11:24:43.018Z,1012.23
2023-02-19T11:25:43.116Z,1012.23
2023-02-19T11:26:43.390Z,1012.27
2023-02-19T11:27:43.043Z,1012.24
2023-02-19T11:28:43.093Z,1012.29
2023-02-19T11:29:43.014Z,1012.26
2023-02-19T11:30:43.089Z,1012.24
2023-02-19T11:31:43.034Z,1012.27
2023-02-19T11:32:43.012Z,1012.32
2023-02-19T11:33:43.010Z,1012.3
2023-02-19T11:34:43.008Z,1012.29
2023-02-19T11:35:43.021Z,1012.3
2023-02-19T11:36:43.008Z,1012.27
2023-02-19T11:37:43.271Z,1012.29
2023-02-19T11:38:43.030Z,1012.28
2023-02-19T11:39:43.069Z,1012.23
2023-02-19T11:40:43.102Z,1012.28
2023-02-19T11:41:43.014Z,1012.3
2023-02-19T11:42:43.015Z,1012.29
2023-02-19T11:43:43.103Z,1012.32
2023-02-19T11:44:43.214Z,1012.34
2023-02-19T11:45:43.011Z,1012.34
2023-02-19T11:46:43.044Z,1012.38
2023-02-19T11:47:43.241Z,1012.39
2023-02-19T11:48:43.481Z,1012.47
2023-02-19T11:49:42.439Z,1012.45
2023-02-19T11:50:42.815Z,1012.47
2023-02-19T11:51:43.024Z,1012.43
2023-02-19T11:52:43.289Z,1012.44
2023-02-19T11:53:42.551Z,1012.39
2023-02-19T11:54:42.845Z,1012.35
2023-02-19T11:55:43.226Z,1012.29
2023-02-19T11:56:42.893Z,1012.31
2023-02-19T11:57:42.969Z,1012.29
2023-02-19T11:58:43.276Z,1012.31
2023-02-19T11:59:43.526Z,1012.31
2023-02-19T12:00:43.179Z,1012.34
2023-02-19T12:01:43.345Z,1012.33
2023-02-19T12:02:43.182Z,1012.31
2023-02-19T12:03:43.033Z,1012.3
2023-02-19T12:04:43.281Z,1012.29
2023-02-19T12:05:43.234Z,1012.31
2023-02-19T12:06:43.235Z,1012.25
2023-02-19T12:07:43.117Z,1012.19
2023-02-19T12:08:43.387Z,1012.18